Rainbow (RB1) Station Data

Red Flag Warning: No
Fire Weather Zone: 250
SDGE Region: North East
Lat/Lon: 33.419/-117.144

Observations

Time Wind Speed/Gust Temp(F) RH Fuel Moist Fuel Temp(F) Dewpt(F) Tmax(F) Tmin(F) Accum Precip 10-min Precip SL Press(mb)
3/29 8:00am 24 10 G 18 57° 35% - - 29° 57.8° 50.7° - - -
3/29 7:50am 35 8 G 14 57° 35% - - 29° 57.8° 50.7° - - -
3/29 7:40am 22 10 G 16 56° 39% - - 31° 57.8° 50.7° - - -
3/29 7:30am 20 9 G 16 55° 40% - - 31° 57.8° 50.7° - - -
3/29 7:20am 16 12 G 22 55° 41% - - 31° 57.8° 50.7° - - -
3/29 7:10am 13 13 G 21 54° 42% - - 32° 57.8° 50.7° - - -
3/29 7:00am 12 13 G 20 54° 43% - - 32° 57.8° 50.7° - - -
3/29 6:50am 12 13 G 20 54° 43% - - 32° 57.8° 50.7° - - -
3/29 6:40am 15 10 G 17 54° 40% - - 31° 57.8° 50.7° - - -
3/29 6:30am 27 8 G 14 55° 40% - - 31° 57.8° 50.7° - - -
3/29 6:20am 21 8 G 15 55° 38% - - 30° 57.8° 50.7° - - -
3/29 6:10am 13 10 G 18 55° 34% - - 27° 57.8° 50.7° - - -
3/29 6:00am 12 12 G 21 54° 38% - - 29° 57.8° 50.7° - - -
3/29 5:50am 13 11 G 22 55° 42% - - 32° 57.8° 50.7° - - -
3/29 5:40am 15 11 G 20 55° 43% - - 33° 57.8° 50.7° - - -
3/29 5:30am 12 12 G 19 55° 42% - - 32° 57.8° 50.7° - - -
3/29 5:20am 17 10 G 19 56° 39% - - 31° 57.8° 50.7° - - -
3/29 5:10am 31 6 G 13 57° 36% - - 30° 57.8° 50.7° - - -
3/29 5:00am 35 6 G 14 57° 30% - - 27° 57.8° 50.7° - - -
3/29 4:50am 34 8 G 15 57° 29% - - 25° 57.8° 50.7° - - -
3/29 4:40am 28 9 G 19 57° 33% - - 28° 57.8° 50.7° - - -
3/29 4:30am 28 9 G 16 56° 39% - - 31° 57.8° 50.7° - - -
3/29 4:20am 31 8 G 14 56° 39% - - 32° 57.8° 50.7° - - -
3/29 4:10am 30 9 G 18 57° 38% - - 31° 57.8° 50.7° - - -
3/29 4:00am 33 8 G 14 56° 39% - - 31° 57.8° 50.7° - - -
3/29 3:50am 33 7 G 14 55° 39% - - 31° 57.8° 50.7° - - -
3/29 3:40am 18 6 G 12 56° 32% - - 27° 57.8° 50.7° - - -
3/29 3:30am 14 3 G 8 56° 34% - - 28° 57.8° 50.7° - - -
3/29 3:20am 0 5 G 10 56° 38% - - 31° 57.8° 50.7° - - -
3/29 3:10am 13 6 G 11 56° 41% - - 32° 57.8° 50.7° - - -
3/29 3:00am 20 5 G 9 56° 42% - - 33° 57.8° 50.7° - - -
3/29 2:50am 14 9 G 17 57° 43% - - 35° 57.8° 50.7° - - -
3/29 2:40am 20 7 G 12 57° 44% - - 35° 57.8° 50.7° - - -
3/29 2:30am 12 8 G 13 56° 46% - - 36° 57.8° 50.7° - - -
3/29 2:20am 31 7 G 12 56° 48% - - 36° 57.8° 50.7° - - -
3/29 2:10am 20 3 G 12 57° 45% - - 36° 57.8° 50.7° - - -
3/29 2:00am 27 5 G 10 57° 43% - - 35° 57.8° 50.7° - - -
3/29 1:50am 8 8 G 18 56° 47% - - 36° 57° 50.7° - - -
3/29 1:40am 2 8 G 17 55° 48% - - 35° 55.6° 50.7° - - -
3/29 1:30am 50 2 G 10 53° 49% - - 35° 54.5° 50.7° - - -
3/29 1:20am 62 3 G 7 54° 47% - - 34° 54.5° 50.7° - - -
3/29 1:10am 52 2 G 6 54° 46% - - 34° 54.5° 50.7° - - -
3/29 1:00am 65 2 G 4 51° 55% - - 36° 53.1° 50.7° - - -
3/29 12:50am 3 1 G 4 52° 56% - - 36° 53.1° 50.9° - - -
3/29 12:40am 77 3 G 5 52° 54% - - 36° 53.1° 51.6° - - -
3/29 12:30am 43 3 G 4 52° 54% - - 36° 53.1° 51.6° - - -
3/29 12:20am 68 2 G 4 52° 54% - - 36° 52.7° 51.6° - - -
3/29 12:10am 56 2 G 4 52° 56% - - 37° 52.3° 51.6° - - -
3/29 12:00am 54 4 G 5 52° 57% - - 37° 74.7° 46.2° - - -
3/28 11:50pm 73 2 G 4 51° 60% - - 37° 74.7° 46.2° - - -
3/28 11:40pm 65 2 G 3 52° 59% - - 38° 74.7° 46.2° - - -
3/28 11:30pm 81 2 G 3 52° 59% - - 38° 74.7° 46.2° - - -
3/28 11:20pm 21 1 G 3 52° 61% - - 39° 74.7° 46.2° - - -
3/28 11:10pm 26 1 G 2 52° 62% - - 40° 74.7° 46.2° - - -
3/28 11:00pm 220 1 G 1 52° 64% - - 40° 74.7° 46.2° - - -
3/28 10:50pm 305 0 G 1 53° 60% - - 39° 74.7° 46.2° - - -
3/28 10:40pm 156 0 G 2 53° 56% - - 38° 74.7° 46.2° - - -
3/28 10:30pm 32 1 G 2 54° 52% - - 37° 74.7° 46.2° - - -
3/28 10:20pm 77 2 G 3 54° 54% - - 37° 74.7° 46.2° - - -
3/28 10:10pm 27 2 G 4 53° 58% - - 38° 74.7° 46.2° - - -
3/28 10:00pm 18 2 G 3 54° 56% - - 38° 74.7° 46.2° - - -
3/28 9:50pm 54 2 G 3 54° 56% - - 38° 74.7° 46.2° - - -
3/28 9:40pm 40 2 G 3 53° 56% - - 38° 74.7° 46.2° - - -
3/28 9:30pm 65 2 G 3 54° 55% - - 38° 74.7° 46.2° - - -
3/28 9:20pm 69 2 G 3 54° 54% - - 38° 74.7° 46.2° - - -
3/28 9:10pm 61 3 G 3 54° 56% - - 39° 74.7° 46.2° - - -
3/28 9:00pm 55 2 G 3 55° 55% - - 39° 74.7° 46.2° - - -
3/28 8:50pm 41 2 G 3 55° 53% - - 39° 74.7° 46.2° - - -
3/28 8:40pm 343 1 G 2 56° 53% - - 39° 74.7° 46.2° - - -
3/28 8:30pm 47 2 G 3 56° 53% - - 39° 74.7° 46.2° - - -
3/28 8:20pm 62 2 G 3 56° 54% - - 40° 74.7° 46.2° - - -
3/28 8:10pm 57 2 G 3 57° 54% - - 41° 74.7° 46.2° - - -
3/28 8:00pm 45 2 G 2 58° 48% - - 39° 74.7° 46.2° - - -
3/28 7:50pm 332 1 G 2 60° 45% - - 39° 74.7° 46.2° - - -
3/28 7:40pm 238 2 G 3 61° 43% - - 38° 74.7° 46.2° - - -
3/28 7:30pm 211 3 G 4 61° 43% - - 39° 74.7° 46.2° - - -
3/28 7:20pm 237 3 G 4 62° 42% - - 39° 74.7° 46.2° - - -
3/28 7:10pm 214 3 G 6 62° 42% - - 39° 74.7° 46.2° - - -
3/28 7:00pm 205 4 G 7 63° 42% - - 39° 74.7° 46.2° - - -
3/28 6:50pm 196 5 G 8 63° 41% - - 39° 74.7° 46.2° - - -
3/28 6:40pm 188 6 G 8 64° 40% - - 39° 74.7° 46.2° - - -
3/28 6:30pm 185 5 G 8 65° 39% - - 39° 74.7° 46.2° - - -
3/28 6:20pm 185 5 G 7 66° 38% - - 39° 74.7° 46.2° - - -
3/28 6:10pm 210 4 G 6 66° 37% - - 40° 74.7° 46.2° - - -
3/28 6:00pm 200 4 G 7 66° 38% - - 40° 74.7° 46.2° - - -
3/28 5:50pm 177 5 G 8 66° 39% - - 40° 74.7° 46.2° - - -
3/28 5:40pm 191 5 G 7 67° 39% - - 41° 74.7° 46.2° - - -
3/28 5:30pm 190 7 G 11 66° 39% - - 41° 74.7° 46.2° - - -
3/28 5:20pm 197 7 G 11 67° 40% - - 41° 74.7° 46.2° - - -
3/28 5:10pm 182 8 G 13 67° 39% - - 41° 74.7° 46.2° - - -
3/28 5:00pm 175 8 G 12 67° 37% - - 40° 74.7° 46.2° - - -
3/28 4:50pm 190 9 G 14 68° 35% - - 39° 74.7° 46.2° - - -
3/28 4:40pm 184 9 G 13 68° 34% - - 39° 74.7° 46.2° - - -
3/28 4:30pm 202 9 G 15 68° 34% - - 39° 74.7° 46.2° - - -
3/28 4:20pm 187 9 G 14 69° 34% - - 39° 74.7° 46.2° - - -
3/28 4:10pm 182 9 G 15 69° 33% - - 39° 74.7° 46.2° - - -
3/28 4:00pm 192 10 G 15 70° 32% - - 39° 74.7° 46.2° - - -
3/28 3:50pm 189 9 G 15 70° 33% - - 40° 74.7° 46.2° - - -
3/28 3:40pm 188 9 G 14 70° 34% - - 40° 74.7° 46.2° - - -
3/28 3:30pm 175 10 G 15 70° 33% - - 40° 74.7° 46.2° - - -
3/28 3:20pm 178 11 G 17 71° 34% - - 41° 74.7° 46.2° - - -
3/28 3:10pm 174 10 G 16 71° 34% - - 41° 74.7° 46.2° - - -
3/28 3:00pm 165 11 G 16 71° 35% - - 43° 74.7° 46.2° - - -
3/28 2:50pm 174 9 G 15 72° 32% - - 40° 74.7° 46.2° - - -
3/28 2:40pm 221 5 G 12 74° 22% - - 32° 74.7° 46.2° - - -
3/28 2:30pm 211 5 G 8 74° 19% - - 29° 74.6° 46.2° - - -
3/28 2:20pm 203 4 G 8 73° 15% - - 22° 74.6° 46.2° - - -
3/28 2:10pm 225 6 G 10 73° 13% - - 20° 73.3° 46.2° - - -
3/28 2:00pm 229 6 G 10 73° 13% - - 20° 73.3° 46.2° - - -
3/28 1:50pm 157 4 G 9 72° 14% - - 20° 73.1° 46.2° - - -
3/28 1:40pm 213 5 G 12 72° 14% - - 20° 73.1° 46.2° - - -
3/28 1:30pm 243 3 G 9 73° 14% - - 21° 73.1° 46.2° - - -
3/28 1:20pm 69 1 G 5 72° 15% - - 23° 73.1° 46.2° - - -
3/28 1:10pm 292 3 G 7 72° 15% - - 23° 72.8° 46.2° - - -
3/28 1:00pm 230 3 G 7 72° 15% - - 22° 72.3° 46.2° - - -
3/28 12:50pm 250 2 G 7 71° 16% - - 23° 72.3° 46.2° - - -
3/28 12:40pm 191 2 G 6 71° 15% - - 21° 71.1° 46.2° - - -
3/28 12:30pm 212 2 G 5 71° 17% - - 23° 71.1° 46.2° - - -
3/28 12:20pm 2 2 G 9 69° 17% - - 22° 70.5° 46.2° - - -
3/28 12:10pm 358 5 G 10 68° 17% - - 21° 68.9° 46.2° - - -
3/28 12:00pm 358 5 G 10 68° 18% - - 23° 68.8° 46.2° - - -
3/28 11:50am 10 3 G 7 68° 18% - - 23° 68° 46.2° - - -
3/28 11:40am 33 4 G 7 67° 20% - - 24° 68° 46.2° - - -
3/28 11:30am 27 5 G 11 67° 20% - - 25° 67.5° 46.2° - - -
3/28 11:20am 22 6 G 11 67° 21% - - 25° 67.1° 46.2° - - -
3/28 11:10am 32 6 G 12 66° 20% - - 24° 66.5° 46.2° - - -
3/28 11:00am 26 6 G 11 66° 21% - - 25° 66.2° 46.2° - - -
3/28 10:50am 21 6 G 12 65° 21% - - 24° 66.1° 46.2° - - -
3/28 10:40am 28 8 G 15 65° 23% - - 26° 65.1° 46.2° - - -
3/28 10:30am 20 8 G 13 64° 25% - - 28° 64.8° 46.2° - - -
3/28 10:20am 18 8 G 14 63° 29% - - 30° 63.5° 46.2° - - -
3/28 10:10am 20 9 G 15 62° 31% - - 31° 62.4° 46.2° - - -
3/28 10:00am 22 10 G 16 61° 33% - - 32° 61.5° 46.2° - - -
3/28 9:50am 17 10 G 17 61° 34% - - 32° 60.9° 46.2° - - -
3/28 9:40am 19 10 G 16 60° 35% - - 32° 60.6° 46.2° - - -
3/28 9:30am 17 10 G 16 58° 41% - - 35° 58.7° 46.2° - - -
3/28 9:20am 17 10 G 16 56° 43% - - 34° 57.4° 46.2° - - -
3/28 9:10am 12 10 G 16 55° 45% - - 34° 56.1° 46.2° - - -
3/28 9:00am 8 12 G 17 54° 46% - - 34° 54.8° 46.2° - - -
3/28 8:50am 8 12 G 18 54° 47% - - 34° 53.8° 46.2° - - -
3/28 8:40am 10 12 G 18 53° 47% - - 33° 53.4° 46.2° - - -
3/28 8:30am 10 12 G 19 52° 49% - - 34° 52.6° 46.2° - - -
3/28 8:20am 9 11 G 19 51° 51% - - 34° 52.1° 46.2° - - -
3/28 8:10am 6 10 G 16 51° 54% - - 35° 52.1° 46.2° - - -
3/28 8:00am 8 11 G 17 50° 54% - - 35° 52.1° 46.2° - - -
3/28 7:50am 7 10 G 16 51° 54% - - 35° 52.1° 46.2° - - -
3/28 7:40am 12 9 G 13 51° 54% - - 35° 52.1° 46.2° - - -
3/28 7:30am 9 7 G 12 52° 52% - - 34° 52.1° 46.2° - - -
3/28 7:20am 11 8 G 12 52° 51% - - 34° 51.8° 46.2° - - -
3/28 7:10am 21 10 G 16 50° 54% - - 35° 51.4° 46.2° - - -
3/28 7:00am 13 11 G 17 50° 55% - - 35° 50.6° 46.2° - - -
3/28 6:50am 13 11 G 15 50° 57% - - 35° 50.4° 46.2° - - -
3/28 6:40am 12 12 G 18 50° 58% - - 36° 50.4° 46.2° - - -
3/28 6:30am 6 10 G 17 49° 60% - - 36° 50.4° 46.2° - - -
3/28 6:20am 13 9 G 15 49° 62% - - 37° 50.4° 46.2° - - -
3/28 6:10am 22 8 G 18 49° 63% - - 37° 50.4° 46.2° - - -
3/28 6:00am 18 12 G 19 49° 62% - - 37° 50.4° 46.2° - - -